CheckWX is a tool to help pilots better visualize weather data.  It is not intended as a substitute for an official pre-flight weather briefing.

18:35:37 UTC

HKMO METAR
Mombasa Moi International Airport
Mombasa, Kenya
Current

22 hours ago

HKMO 212100Z 00000KT 9999 FEW022 27/24 Q1013 NOSIG
Observed
Feb-21 @ 21:00 UTC
Visibility
10,000+ meters
Flight Rules
VFR
Cloud Levels
  • Few at 2,200' AGL
Temperature
27°C / 81°F
Dewpoint
24°C / 75°F
Humidity
84%
Altimeter
29.91" Hg
Pressure
1012.92 hPa
Previous

23 hours ago

HKMO 212000Z 08003KT 9999 FEW023 28/24 Q1013 NOSIG
Observed
Feb-21 @ 20:00 UTC
Wind
  • 080° at 3 KTS
Visibility
10,000+ meters
Flight Rules
VFR
Cloud Levels
  • Few at 2,300' AGL
Temperature
28°C / 82°F
Dewpoint
24°C / 75°F
Humidity
79%
Altimeter
29.91" Hg
Pressure
1012.92 hPa
Previous

24 hours ago

HKMO 211900Z 08004KT 9999 FEW023 28/25 Q1013 NOSIG
Observed
Feb-21 @ 19:00 UTC
Wind
  • 080° at 4 KTS
Visibility
10,000+ meters
Flight Rules
VFR
Cloud Levels
  • Few at 2,300' AGL
Temperature
28°C / 82°F
Dewpoint
25°C / 77°F
Humidity
84%
Altimeter
29.91" Hg
Pressure
1012.92 hPa